sensor_id;sensor_type;location;lat;lon;timestamp;pressure;altitude;pressure_sealevel;temperature;humidity
21824;BME280;11074;48.596;9.238;2024-03-07T00:00:12;98681.34;;;8.31;100.00
21824;BME280;11074;48.596;9.238;2024-03-07T00:02:48;98687.09;;;8.28;100.00
21824;BME280;11074;48.596;9.238;2024-03-07T00:05:15;98666.88;;;8.21;100.00
21824;BME280;11074;48.596;9.238;2024-03-07T00:07:41;98678.72;;;8.25;100.00
21824;BME280;11074;48.596;9.238;2024-03-07T00:10:07;98682.19;;;8.25;100.00
21824;BME280;11074;48.596;9.238;2024-03-07T00:12:36;98680.00;;;8.22;100.00
21824;BME280;11074;48.596;9.238;2024-03-07T00:15:05;98685.09;;;8.24;100.00
21824;BME280;11074;48.596;9.238;2024-03-07T00:17:31;98672.91;;;8.16;100.00
21824;BME280;11074;48.596;9.238;2024-03-07T00:19:56;98685.78;;;8.19;100.00
21824;BME280;11074;48.596;9.238;2024-03-07T00:22:22;98678.66;;;8.13;100.00
21824;BME280;11074;48.596;9.238;2024-03-07T00:24:48;98684.44;;;8.10;100.00
21824;BME280;11074;48.596;9.238;2024-03-07T00:27:13;98677.94;;;8.06;100.00
21824;BME280;11074;48.596;9.238;2024-03-07T00:29:42;98685.25;;;8.11;100.00
21824;BME280;11074;48.596;9.238;2024-03-07T00:32:08;98694.84;;;8.12;100.00
21824;BME280;11074;48.596;9.238;2024-03-07T00:34:33;98691.25;;;8.06;99.88
21824;BME280;11074;48.596;9.238;2024-03-07T00:36:59;98688.59;;;8.06;100.00
21824;BME280;11074;48.596;9.238;2024-03-07T00:39:24;98688.28;;;8.14;100.00
21824;BME280;11074;48.596;9.238;2024-03-07T00:41:50;98692.66;;;8.09;99.55
21824;BME280;11074;48.596;9.238;2024-03-07T00:44:15;98685.84;;;7.94;98.48
21824;BME280;11074;48.596;9.238;2024-03-07T00:46:41;98685.19;;;7.99;99.02
21824;BME280;11074;48.596;9.238;2024-03-07T00:49:06;98687.25;;;7.97;98.30
21824;BME280;11074;48.596;9.238;2024-03-07T00:51:32;98679.84;;;7.99;98.56
21824;BME280;11074;48.596;9.238;2024-03-07T00:53:57;98686.81;;;8.00;98.55
21824;BME280;11074;48.596;9.238;2024-03-07T00:56:23;98681.63;;;8.05;98.56
21824;BME280;11074;48.596;9.238;2024-03-07T00:58:49;98681.56;;;7.93;98.61
21824;BME280;11074;48.596;9.238;2024-03-07T01:01:14;98671.28;;;7.97;97.32
21824;BME280;11074;48.596;9.238;2024-03-07T01:03:41;98671.72;;;7.94;98.46
21824;BME280;11074;48.596;9.238;2024-03-07T01:06:06;98673.38;;;7.77;96.55
21824;BME280;11074;48.596;9.238;2024-03-07T01:08:32;98670.41;;;7.85;95.89
21824;BME280;11074;48.596;9.238;2024-03-07T01:10:58;98664.47;;;7.83;96.11
21824;BME280;11074;48.596;9.238;2024-03-07T01:13:23;98667.00;;;7.78;96.63
21824;BME280;11074;48.596;9.238;2024-03-07T01:15:49;98677.78;;;7.65;95.32
21824;BME280;11074;48.596;9.238;2024-03-07T01:18:15;98665.00;;;7.73;96.84
21824;BME280;11074;48.596;9.238;2024-03-07T01:20:40;98665.66;;;7.69;97.21
21824;BME280;11074;48.596;9.238;2024-03-07T01:23:06;98672.97;;;7.55;95.72
21824;BME280;11074;48.596;9.238;2024-03-07T01:25:35;98669.78;;;7.65;96.18
21824;BME280;11074;48.596;9.238;2024-03-07T01:28:00;98664.47;;;7.65;94.56
21824;BME280;11074;48.596;9.238;2024-03-07T01:30:26;98661.91;;;7.58;95.50
21824;BME280;11074;48.596;9.238;2024-03-07T01:32:53;98665.34;;;7.59;95.68
21824;BME280;11074;48.596;9.238;2024-03-07T01:35:19;98668.28;;;7.51;94.52
21824;BME280;11074;48.596;9.238;2024-03-07T01:37:44;98664.38;;;7.53;96.38
21824;BME280;11074;48.596;9.238;2024-03-07T01:40:10;98666.19;;;7.34;94.08
21824;BME280;11074;48.596;9.238;2024-03-07T01:42:36;98653.22;;;7.45;95.82
21824;BME280;11074;48.596;9.238;2024-03-07T01:45:02;98661.06;;;7.40;96.58
21824;BME280;11074;48.596;9.238;2024-03-07T01:47:28;98662.19;;;7.50;94.84
21824;BME280;11074;48.596;9.238;2024-03-07T01:49:53;98658.47;;;7.51;95.19
21824;BME280;11074;48.596;9.238;2024-03-07T01:52:18;98653.97;;;7.52;95.52
21824;BME280;11074;48.596;9.238;2024-03-07T01:54:44;98654.69;;;7.41;94.42
21824;BME280;11074;48.596;9.238;2024-03-07T01:57:09;98645.88;;;7.40;95.75
21824;BME280;11074;48.596;9.238;2024-03-07T01:59:35;98643.63;;;7.44;95.80
21824;BME280;11074;48.596;9.238;2024-03-07T02:02:01;98656.22;;;7.30;92.91
21824;BME280;11074;48.596;9.238;2024-03-07T02:04:27;98646.34;;;7.37;93.99
21824;BME280;11074;48.596;9.238;2024-03-07T02:06:52;98647.97;;;7.38;93.18
21824;BME280;11074;48.596;9.238;2024-03-07T02:09:18;98642.25;;;7.34;93.35
21824;BME280;11074;48.596;9.238;2024-03-07T02:11:47;98645.53;;;7.37;92.58
21824;BME280;11074;48.596;9.238;2024-03-07T02:14:12;98642.50;;;7.33;92.64
21824;BME280;11074;48.596;9.238;2024-03-07T02:16:38;98636.06;;;7.22;92.32
21824;BME280;11074;48.596;9.238;2024-03-07T02:19:04;98643.44;;;7.20;93.43
21824;BME280;11074;48.596;9.238;2024-03-07T02:21:29;98638.97;;;7.14;93.85
21824;BME280;11074;48.596;9.238;2024-03-07T02:23:55;98638.31;;;7.19;94.23
21824;BME280;11074;48.596;9.238;2024-03-07T02:26:20;98632.97;;;7.25;96.26
21824;BME280;11074;48.596;9.238;2024-03-07T02:28:45;98626.50;;;7.15;93.28
21824;BME280;11074;48.596;9.238;2024-03-07T02:31:10;98631.72;;;7.03;92.95
21824;BME280;11074;48.596;9.238;2024-03-07T02:33:36;98632.53;;;7.04;93.06
21824;BME280;11074;48.596;9.238;2024-03-07T02:36:01;98629.13;;;6.97;92.80
21824;BME280;11074;48.596;9.238;2024-03-07T02:38:26;98627.88;;;6.99;92.51
21824;BME280;11074;48.596;9.238;2024-03-07T02:40:52;98631.13;;;7.01;92.21
21824;BME280;11074;48.596;9.238;2024-03-07T02:43:17;98619.00;;;7.05;91.09
21824;BME280;11074;48.596;9.238;2024-03-07T02:45:43;98619.94;;;6.93;91.08
21824;BME280;11074;48.596;9.238;2024-03-07T02:48:08;98623.03;;;6.90;90.79
21824;BME280;11074;48.596;9.238;2024-03-07T02:50:37;98622.41;;;6.94;91.22
21824;BME280;11074;48.596;9.238;2024-03-07T02:53:04;98621.59;;;6.94;90.44
21824;BME280;11074;48.596;9.238;2024-03-07T02:55:30;98616.31;;;6.87;90.87
21824;BME280;11074;48.596;9.238;2024-03-07T02:57:56;98619.38;;;6.91;91.30
21824;BME280;11074;48.596;9.238;2024-03-07T03:00:24;98616.75;;;6.84;91.60
21824;BME280;11074;48.596;9.238;2024-03-07T03:02:55;98618.22;;;6.80;91.51
21824;BME280;11074;48.596;9.238;2024-03-07T03:05:21;98615.97;;;6.84;92.09
21824;BME280;11074;48.596;9.238;2024-03-07T03:07:46;98610.69;;;6.77;92.30
21824;BME280;11074;48.596;9.238;2024-03-07T03:10:27;98610.13;;;6.68;91.37
21824;BME280;11074;48.596;9.238;2024-03-07T03:12:55;98608.78;;;6.59;91.48
21824;BME280;11074;48.596;9.238;2024-03-07T03:15:23;98620.91;;;6.49;91.96
21824;BME280;11074;48.596;9.238;2024-03-07T03:17:48;98620.50;;;6.45;92.55
21824;BME280;11074;48.596;9.238;2024-03-07T03:20:13;98623.19;;;6.39;92.44
21824;BME280;11074;48.596;9.238;2024-03-07T03:23:05;98614.28;;;6.33;92.54
21824;BME280;11074;48.596;9.238;2024-03-07T03:25:31;98613.47;;;6.33;91.67
21824;BME280;11074;48.596;9.238;2024-03-07T03:28:00;98615.22;;;6.39;93.23
21824;BME280;11074;48.596;9.238;2024-03-07T03:30:26;98611.78;;;6.38;92.76
21824;BME280;11074;48.596;9.238;2024-03-07T03:32:51;98615.69;;;6.36;92.86
21824;BME280;11074;48.596;9.238;2024-03-07T03:35:17;98615.22;;;6.45;93.15
21824;BME280;11074;48.596;9.238;2024-03-07T03:37:43;98612.38;;;6.40;94.42
21824;BME280;11074;48.596;9.238;2024-03-07T03:40:09;98615.06;;;6.34;94.74
21824;BME280;11074;48.596;9.238;2024-03-07T03:42:35;98611.00;;;6.31;94.45
21824;BME280;11074;48.596;9.238;2024-03-07T03:45:01;98612.47;;;6.27;94.69
21824;BME280;11074;48.596;9.238;2024-03-07T03:47:32;98613.53;;;6.20;95.22
21824;BME280;11074;48.596;9.238;2024-03-07T03:49:58;98612.75;;;6.13;94.67
21824;BME280;11074;48.596;9.238;2024-03-07T03:52:23;98611.72;;;6.14;94.85
21824;BME280;11074;48.596;9.238;2024-03-07T03:54:49;98611.50;;;6.15;94.03
21824;BME280;11074;48.596;9.238;2024-03-07T03:57:14;98609.53;;;6.04;93.90
21824;BME280;11074;48.596;9.238;2024-03-07T03:59:43;98605.19;;;6.09;94.26
21824;BME280;11074;48.596;9.238;2024-03-07T04:02:09;98608.66;;;6.10;94.67
21824;BME280;11074;48.596;9.238;2024-03-07T04:04:38;98601.19;;;6.00;94.29
21824;BME280;11074;48.596;9.238;2024-03-07T04:07:04;98599.53;;;5.99;93.15
21824;BME280;11074;48.596;9.238;2024-03-07T04:09:29;98599.16;;;5.96;93.71
21824;BME280;11074;48.596;9.238;2024-03-07T04:11:54;98599.97;;;5.96;94.75
21824;BME280;11074;48.596;9.238;2024-03-07T04:14:20;98600.41;;;5.93;93.94
21824;BME280;11074;48.596;9.238;2024-03-07T04:16:45;98599.81;;;5.85;93.90
21824;BME280;11074;48.596;9.238;2024-03-07T04:19:10;98603.09;;;5.74;93.81
21824;BME280;11074;48.596;9.238;2024-03-07T04:21:35;98595.16;;;5.67;94.28
21824;BME280;11074;48.596;9.238;2024-03-07T04:24:01;98599.69;;;5.60;93.50
21824;BME280;11074;48.596;9.238;2024-03-07T04:26:27;98595.63;;;5.58;94.17
21824;BME280;11074;48.596;9.238;2024-03-07T04:28:53;98599.47;;;5.62;94.57
21824;BME280;11074;48.596;9.238;2024-03-07T04:31:18;98597.25;;;5.59;94.74
21824;BME280;11074;48.596;9.238;2024-03-07T04:33:43;98598.69;;;5.61;94.92
21824;BME280;11074;48.596;9.238;2024-03-07T04:36:08;98592.69;;;5.72;94.20
21824;BME280;11074;48.596;9.238;2024-03-07T04:38:34;98587.22;;;5.67;93.75
21824;BME280;11074;48.596;9.238;2024-03-07T04:40:59;98588.31;;;5.46;93.78
21824;BME280;11074;48.596;9.238;2024-03-07T04:43:24;98599.53;;;5.42;93.18
21824;BME280;11074;48.596;9.238;2024-03-07T04:45:51;98597.13;;;5.34;93.32
21824;BME280;11074;48.596;9.238;2024-03-07T04:48:16;98596.91;;;5.42;95.64
21824;BME280;11074;48.596;9.238;2024-03-07T04:50:41;98599.72;;;5.47;94.38
21824;BME280;11074;48.596;9.238;2024-03-07T04:53:07;98600.75;;;5.46;95.15
21824;BME280;11074;48.596;9.238;2024-03-07T04:55:32;98593.88;;;5.32;94.02
21824;BME280;11074;48.596;9.238;2024-03-07T04:57:58;98594.44;;;5.40;93.40
21824;BME280;11074;48.596;9.238;2024-03-07T05:00:23;98588.94;;;5.35;94.69
21824;BME280;11074;48.596;9.238;2024-03-07T05:02:49;98595.66;;;5.38;93.14
21824;BME280;11074;48.596;9.238;2024-03-07T05:05:17;98602.81;;;5.31;93.09
21824;BME280;11074;48.596;9.238;2024-03-07T05:07:48;98596.53;;;5.25;93.74
21824;BME280;11074;48.596;9.238;2024-03-07T05:10:14;98592.63;;;5.28;94.74
21824;BME280;11074;48.596;9.238;2024-03-07T05:12:40;98594.47;;;5.27;94.05
21824;BME280;11074;48.596;9.238;2024-03-07T05:15:06;98594.47;;;5.34;95.09
21824;BME280;11074;48.596;9.238;2024-03-07T05:17:31;98595.28;;;5.34;94.71
21824;BME280;11074;48.596;9.238;2024-03-07T05:19:59;98588.13;;;5.35;93.66
21824;BME280;11074;48.596;9.238;2024-03-07T05:22:25;98586.47;;;5.40;94.70
21824;BME280;11074;48.596;9.238;2024-03-07T05:24:52;98596.50;;;5.38;93.50
21824;BME280;11074;48.596;9.238;2024-03-07T05:27:17;98592.41;;;5.36;94.34
21824;BME280;11074;48.596;9.238;2024-03-07T05:29:43;98594.44;;;5.47;94.71
21824;BME280;11074;48.596;9.238;2024-03-07T05:32:24;98593.59;;;5.53;94.79
21824;BME280;11074;48.596;9.238;2024-03-07T05:34:51;98592.56;;;5.54;93.96
21824;BME280;11074;48.596;9.238;2024-03-07T05:37:18;98599.31;;;5.50;93.44
21824;BME280;11074;48.596;9.238;2024-03-07T05:39:45;98598.50;;;5.56;94.69
21824;BME280;11074;48.596;9.238;2024-03-07T05:42:10;98591.94;;;5.59;93.61
21824;BME280;11074;48.596;9.238;2024-03-07T05:44:39;98594.38;;;5.60;92.92
21824;BME280;11074;48.596;9.238;2024-03-07T05:47:04;98586.59;;;5.65;92.19
21824;BME280;11074;48.596;9.238;2024-03-07T05:49:30;98591.09;;;5.71;92.75
21824;BME280;11074;48.596;9.238;2024-03-07T05:51:56;98592.28;;;5.75;92.17
21824;BME280;11074;48.596;9.238;2024-03-07T05:54:23;98602.09;;;5.75;91.00
21824;BME280;11074;48.596;9.238;2024-03-07T05:56:48;98588.78;;;5.81;91.51
21824;BME280;11074;48.596;9.238;2024-03-07T05:59:14;98585.53;;;5.86;91.99
21824;BME280;11074;48.596;9.238;2024-03-07T06:01:40;98584.50;;;5.87;91.18
21824;BME280;11074;48.596;9.238;2024-03-07T06:04:06;98593.06;;;5.82;91.16
21824;BME280;11074;48.596;9.238;2024-03-07T06:06:35;98583.47;;;5.81;92.32
21824;BME280;11074;48.596;9.238;2024-03-07T06:09:03;98593.69;;;5.78;91.24
21824;BME280;11074;48.596;9.238;2024-03-07T06:11:38;98586.34;;;5.80;91.10
21824;BME280;11074;48.596;9.238;2024-03-07T06:14:05;98588.34;;;5.97;91.71
21824;BME280;11074;48.596;9.238;2024-03-07T06:16:36;98586.88;;;6.01;90.71
21824;BME280;11074;48.596;9.238;2024-03-07T06:19:04;98591.81;;;5.98;89.95
21824;BME280;11074;48.596;9.238;2024-03-07T06:21:29;98586.16;;;5.88;87.85
21824;BME280;11074;48.596;9.238;2024-03-07T06:23:58;98589.00;;;5.86;88.03
21824;BME280;11074;48.596;9.238;2024-03-07T06:26:31;98590.63;;;5.87;89.60
21824;BME280;11074;48.596;9.238;2024-03-07T06:29:09;98591.47;;;5.88;89.59
21824;BME280;11074;48.596;9.238;2024-03-07T06:31:36;98586.34;;;5.86;89.24
21824;BME280;11074;48.596;9.238;2024-03-07T06:34:02;98589.44;;;5.70;88.33
21824;BME280;11074;48.596;9.238;2024-03-07T06:36:27;98584.28;;;5.88;88.86
21824;BME280;11074;48.596;9.238;2024-03-07T06:38:53;98587.75;;;5.95;89.00
21824;BME280;11074;48.596;9.238;2024-03-07T06:41:19;98584.84;;;6.03;89.52
21824;BME280;11074;48.596;9.238;2024-03-07T06:43:44;98577.91;;;6.02;88.38
21824;BME280;11074;48.596;9.238;2024-03-07T06:46:14;98582.00;;;5.98;88.80
21824;BME280;11074;48.596;9.238;2024-03-07T06:48:44;98587.78;;;5.82;86.37
21824;BME280;11074;48.596;9.238;2024-03-07T06:51:09;98579.41;;;5.79;88.18
21824;BME280;11074;48.596;9.238;2024-03-07T06:53:35;98586.50;;;5.91;89.16
21824;BME280;11074;48.596;9.238;2024-03-07T06:56:01;98594.06;;;5.94;89.38
21824;BME280;11074;48.596;9.238;2024-03-07T06:58:26;98591.81;;;5.91;88.61
21824;BME280;11074;48.596;9.238;2024-03-07T07:00:52;98599.16;;;5.96;90.28
21824;BME280;11074;48.596;9.238;2024-03-07T07:03:19;98595.28;;;5.98;89.63
21824;BME280;11074;48.596;9.238;2024-03-07T07:05:45;98589.38;;;5.83;89.84
21824;BME280;11074;48.596;9.238;2024-03-07T07:08:11;98594.66;;;5.96;89.89
21824;BME280;11074;48.596;9.238;2024-03-07T07:10:38;98598.19;;;5.90;89.87
21824;BME280;11074;48.596;9.238;2024-03-07T07:13:05;98602.78;;;6.01;90.27
21824;BME280;11074;48.596;9.238;2024-03-07T07:15:30;98597.72;;;6.00;89.64
21824;BME280;11074;48.596;9.238;2024-03-07T07:17:56;98595.44;;;6.03;91.53
21824;BME280;11074;48.596;9.238;2024-03-07T07:20:21;98597.72;;;6.00;90.85
21824;BME280;11074;48.596;9.238;2024-03-07T07:22:49;98597.06;;;6.04;90.31
21824;BME280;11074;48.596;9.238;2024-03-07T07:25:14;98597.88;;;6.05;90.13
21824;BME280;11074;48.596;9.238;2024-03-07T07:27:43;98591.75;;;6.04;88.66
21824;BME280;11074;48.596;9.238;2024-03-07T07:30:10;98593.25;;;5.94;88.29
21824;BME280;11074;48.596;9.238;2024-03-07T07:32:35;98590.38;;;5.95;90.22
21824;BME280;11074;48.596;9.238;2024-03-07T07:35:01;98583.66;;;5.93;89.44
21824;BME280;11074;48.596;9.238;2024-03-07T07:37:26;98594.22;;;5.99;89.66
21824;BME280;11074;48.596;9.238;2024-03-07T07:39:52;98590.34;;;6.02;89.72
21824;BME280;11074;48.596;9.238;2024-03-07T07:42:17;98582.69;;;5.87;90.48
21824;BME280;11074;48.596;9.238;2024-03-07T07:44:42;98588.16;;;5.92;91.41
21824;BME280;11074;48.596;9.238;2024-03-07T07:47:08;98574.94;;;5.79;90.16
21824;BME280;11074;48.596;9.238;2024-03-07T07:49:34;98580.41;;;5.84;90.70
21824;BME280;11074;48.596;9.238;2024-03-07T07:51:59;98580.22;;;5.86;90.87
21824;BME280;11074;48.596;9.238;2024-03-07T07:54:25;98573.09;;;5.80;90.33
21824;BME280;11074;48.596;9.238;2024-03-07T07:56:50;98581.47;;;5.70;89.66
21824;BME280;11074;48.596;9.238;2024-03-07T07:59:16;98579.78;;;5.95;91.42
21824;BME280;11074;48.596;9.238;2024-03-07T08:01:41;98574.22;;;6.03;90.94
21824;BME280;11074;48.596;9.238;2024-03-07T08:04:07;98571.50;;;6.17;89.85
21824;BME280;11074;48.596;9.238;2024-03-07T08:06:34;98573.75;;;6.13;89.34
21824;BME280;11074;48.596;9.238;2024-03-07T08:09:00;98571.06;;;6.20;90.42
21824;BME280;11074;48.596;9.238;2024-03-07T08:11:25;98574.34;;;6.15;89.95
21824;BME280;11074;48.596;9.238;2024-03-07T08:13:51;98569.25;;;6.14;89.45
21824;BME280;11074;48.596;9.238;2024-03-07T08:16:16;98575.72;;;6.24;90.42
21824;BME280;11074;48.596;9.238;2024-03-07T08:18:42;98568.94;;;6.28;90.54
21824;BME280;11074;48.596;9.238;2024-03-07T08:21:07;98576.13;;;6.28;89.10
21824;BME280;11074;48.596;9.238;2024-03-07T08:23:38;98574.06;;;6.30;89.54
21824;BME280;11074;48.596;9.238;2024-03-07T08:26:03;98571.09;;;6.13;88.26
21824;BME280;11074;48.596;9.238;2024-03-07T08:28:30;98568.84;;;6.17;89.86
21824;BME280;11074;48.596;9.238;2024-03-07T08:30:56;98571.16;;;6.06;88.24
21824;BME280;11074;48.596;9.238;2024-03-07T08:33:21;98568.66;;;6.12;89.85
21824;BME280;11074;48.596;9.238;2024-03-07T08:35:47;98567.38;;;6.21;89.70
21824;BME280;11074;48.596;9.238;2024-03-07T08:38:12;98569.00;;;6.22;89.11
21824;BME280;11074;48.596;9.238;2024-03-07T08:40:38;98558.16;;;6.23;89.64
21824;BME280;11074;48.596;9.238;2024-03-07T08:43:04;98568.19;;;6.21;89.03
21824;BME280;11074;48.596;9.238;2024-03-07T08:45:32;98572.25;;;6.24;90.29
21824;BME280;11074;48.596;9.238;2024-03-07T08:48:00;98567.19;;;6.16;89.02
21824;BME280;11074;48.596;9.238;2024-03-07T08:50:26;98558.56;;;6.27;89.39
21824;BME280;11074;48.596;9.238;2024-03-07T08:52:52;98566.13;;;6.23;89.96
21824;BME280;11074;48.596;9.238;2024-03-07T08:55:20;98564.72;;;6.21;90.43
21824;BME280;11074;48.596;9.238;2024-03-07T08:57:45;98564.88;;;6.26;90.01
21824;BME280;11074;48.596;9.238;2024-03-07T09:00:15;98558.28;;;6.35;89.70
21824;BME280;11074;48.596;9.238;2024-03-07T09:02:48;98552.13;;;6.41;91.27
21824;BME280;11074;48.596;9.238;2024-03-07T09:05:15;98550.97;;;6.30;89.84
21824;BME280;11074;48.596;9.238;2024-03-07T09:07:41;98561.25;;;6.51;90.08
21824;BME280;11074;48.596;9.238;2024-03-07T09:10:06;98547.34;;;6.49;90.92
21824;BME280;11074;48.596;9.238;2024-03-07T09:12:32;98554.25;;;6.57;90.29
21824;BME280;11074;48.596;9.238;2024-03-07T09:14:57;98548.16;;;6.50;89.68
21824;BME280;11074;48.596;9.238;2024-03-07T09:17:23;98546.28;;;6.57;90.50
21824;BME280;11074;48.596;9.238;2024-03-07T09:19:48;98550.66;;;6.69;90.45
21824;BME280;11074;48.596;9.238;2024-03-07T09:22:13;98537.84;;;6.85;90.30
21824;BME280;11074;48.596;9.238;2024-03-07T09:24:38;98533.34;;;6.85;89.37
21824;BME280;11074;48.596;9.238;2024-03-07T09:27:04;98543.16;;;6.85;89.44
21824;BME280;11074;48.596;9.238;2024-03-07T09:29:30;98529.06;;;6.84;88.97
21824;BME280;11074;48.596;9.238;2024-03-07T09:31:55;98531.13;;;6.82;90.17
21824;BME280;11074;48.596;9.238;2024-03-07T09:34:22;98540.59;;;6.96;88.66
21824;BME280;11074;48.596;9.238;2024-03-07T09:36:48;98534.56;;;6.89;88.00
21824;BME280;11074;48.596;9.238;2024-03-07T09:39:17;98539.06;;;6.89;89.26
21824;BME280;11074;48.596;9.238;2024-03-07T09:41:42;98535.34;;;6.90;88.74
21824;BME280;11074;48.596;9.238;2024-03-07T09:44:09;98535.00;;;7.04;88.86
21824;BME280;11074;48.596;9.238;2024-03-07T09:46:41;98530.44;;;7.11;88.44
21824;BME280;11074;48.596;9.238;2024-03-07T09:49:07;98533.09;;;7.11;89.29
21824;BME280;11074;48.596;9.238;2024-03-07T09:51:35;98529.69;;;7.22;88.65
21824;BME280;11074;48.596;9.238;2024-03-07T09:54:01;98535.25;;;7.21;88.62
21824;BME280;11074;48.596;9.238;2024-03-07T09:56:30;98531.03;;;7.31;88.30
21824;BME280;11074;48.596;9.238;2024-03-07T09:59:03;98532.22;;;7.36;88.50
21824;BME280;11074;48.596;9.238;2024-03-07T10:01:30;98535.44;;;7.38;88.07
21824;BME280;11074;48.596;9.238;2024-03-07T10:04:00;98529.47;;;7.42;87.80
21824;BME280;11074;48.596;9.238;2024-03-07T10:06:42;98524.44;;;7.52;86.70
21824;BME280;11074;48.596;9.238;2024-03-07T10:09:10;98529.84;;;7.46;87.62
21824;BME280;11074;48.596;9.238;2024-03-07T10:11:38;98522.81;;;7.51;88.13
21824;BME280;11074;48.596;9.238;2024-03-07T10:14:04;98520.16;;;7.51;87.83
21824;BME280;11074;48.596;9.238;2024-03-07T10:16:30;98525.41;;;7.58;87.96
21824;BME280;11074;48.596;9.238;2024-03-07T10:18:56;98521.25;;;7.62;87.42
21824;BME280;11074;48.596;9.238;2024-03-07T10:21:21;98527.91;;;7.53;88.07
21824;BME280;11074;48.596;9.238;2024-03-07T10:23:49;98523.09;;;7.61;87.74
21824;BME280;11074;48.596;9.238;2024-03-07T10:26:15;98519.16;;;7.64;87.73
21824;BME280;11074;48.596;9.238;2024-03-07T10:28:41;98525.31;;;7.64;86.65
21824;BME280;11074;48.596;9.238;2024-03-07T10:31:06;98515.28;;;7.66;87.50
21824;BME280;11074;48.596;9.238;2024-03-07T10:33:37;98513.78;;;7.70;87.09
21824;BME280;11074;48.596;9.238;2024-03-07T10:36:02;98516.06;;;7.67;85.82
21824;BME280;11074;48.596;9.238;2024-03-07T10:38:27;98509.66;;;7.56;85.70
21824;BME280;11074;48.596;9.238;2024-03-07T10:40:54;98515.28;;;7.66;86.01
21824;BME280;11074;48.596;9.238;2024-03-07T10:43:20;98510.22;;;7.76;86.44
21824;BME280;11074;48.596;9.238;2024-03-07T10:45:47;98512.63;;;7.78;85.80
21824;BME280;11074;48.596;9.238;2024-03-07T10:48:16;98513.38;;;7.85;85.73
21824;BME280;11074;48.596;9.238;2024-03-07T10:51:20;98518.78;;;7.78;85.14
21824;BME280;11074;48.596;9.238;2024-03-07T10:56:56;98509.34;;;7.94;83.88
21824;BME280;11074;48.596;9.238;2024-03-07T10:59:27;98509.78;;;7.91;81.95
21824;BME280;11074;48.596;9.238;2024-03-07T11:02:05;98504.13;;;7.87;81.86
21824;BME280;11074;48.596;9.238;2024-03-07T11:04:35;98498.69;;;7.94;83.61
21824;BME280;11074;48.596;9.238;2024-03-07T11:07:01;98505.66;;;7.95;83.28
21824;BME280;11074;48.596;9.238;2024-03-07T11:09:26;98500.22;;;8.02;82.23
21824;BME280;11074;48.596;9.238;2024-03-07T11:11:59;98489.50;;;8.08;82.26
21824;BME280;11074;48.596;9.238;2024-03-07T11:14:26;98492.38;;;8.07;82.48
21824;BME280;11074;48.596;9.238;2024-03-07T11:16:53;98493.06;;;8.02;82.05
21824;BME280;11074;48.596;9.238;2024-03-07T11:19:28;98483.09;;;8.09;82.87
21824;BME280;11074;48.596;9.238;2024-03-07T11:21:57;98479.91;;;8.19;82.52
21824;BME280;11074;48.596;9.238;2024-03-07T11:24:29;98480.75;;;8.31;80.15
21824;BME280;11074;48.596;9.238;2024-03-07T11:26:58;98478.69;;;8.44;81.21
21824;BME280;11074;48.596;9.238;2024-03-07T11:32:14;98465.72;;;8.60;79.20
21824;BME280;11074;48.596;9.238;2024-03-07T11:34:41;98460.97;;;8.62;79.61
21824;BME280;11074;48.596;9.238;2024-03-07T11:37:07;98459.47;;;8.77;78.98
21824;BME280;11074;48.596;9.238;2024-03-07T11:39:46;98459.56;;;8.82;78.67
21824;BME280;11074;48.596;9.238;2024-03-07T11:42:25;98454.34;;;8.87;79.61
21824;BME280;11074;48.596;9.238;2024-03-07T11:44:56;98452.84;;;8.91;78.17
21824;BME280;11074;48.596;9.238;2024-03-07T11:47:25;98458.88;;;8.87;78.82
21824;BME280;11074;48.596;9.238;2024-03-07T11:49:54;98440.91;;;8.94;78.95
21824;BME280;11074;48.596;9.238;2024-03-07T11:52:19;98442.50;;;9.06;76.68
21824;BME280;11074;48.596;9.238;2024-03-07T11:54:45;98444.34;;;9.06;77.74
21824;BME280;11074;48.596;9.238;2024-03-07T11:57:19;98436.34;;;9.18;76.50
21824;BME280;11074;48.596;9.238;2024-03-07T11:59:46;98427.81;;;9.32;78.25
21824;BME280;11074;48.596;9.238;2024-03-07T12:02:17;98432.84;;;9.45;77.57
21824;BME280;11074;48.596;9.238;2024-03-07T12:04:43;98433.72;;;9.34;75.87
21824;BME280;11074;48.596;9.238;2024-03-07T12:07:12;98416.94;;;9.22;76.53
21824;BME280;11074;48.596;9.238;2024-03-07T12:09:38;98426.69;;;9.28;76.88
21824;BME280;11074;48.596;9.238;2024-03-07T12:12:08;98413.16;;;9.46;76.28
21824;BME280;11074;48.596;9.238;2024-03-07T12:14:34;98423.34;;;9.49;77.20
21824;BME280;11074;48.596;9.238;2024-03-07T12:17:03;98415.34;;;9.49;78.29
21824;BME280;11074;48.596;9.238;2024-03-07T12:19:32;98400.31;;;9.60;76.68
21824;BME280;11074;48.596;9.238;2024-03-07T12:22:01;98401.22;;;9.65;76.56
21824;BME280;11074;48.596;9.238;2024-03-07T12:24:27;98398.84;;;9.52;77.23
21824;BME280;11074;48.596;9.238;2024-03-07T12:27:04;98399.91;;;9.51;76.03
21824;BME280;11074;48.596;9.238;2024-03-07T12:29:29;98401.53;;;9.52;76.29
21824;BME280;11074;48.596;9.238;2024-03-07T12:31:55;98394.00;;;9.49;77.32
21824;BME280;11074;48.596;9.238;2024-03-07T12:34:21;98398.50;;;9.49;76.22
21824;BME280;11074;48.596;9.238;2024-03-07T12:36:46;98389.34;;;9.45;76.39
21824;BME280;11074;48.596;9.238;2024-03-07T12:39:24;98398.78;;;9.47;76.41
21824;BME280;11074;48.596;9.238;2024-03-07T12:41:52;98390.59;;;9.54;75.58
21824;BME280;11074;48.596;9.238;2024-03-07T12:44:20;98390.28;;;9.67;77.35
21824;BME280;11074;48.596;9.238;2024-03-07T12:46:47;98385.97;;;9.94;75.60
21824;BME280;11074;48.596;9.238;2024-03-07T12:49:13;98380.88;;;10.26;74.15
21824;BME280;11074;48.596;9.238;2024-03-07T12:51:41;98377.31;;;10.37;74.01
21824;BME280;11074;48.596;9.238;2024-03-07T12:54:07;98371.41;;;10.18;74.57
21824;BME280;11074;48.596;9.238;2024-03-07T12:56:35;98373.09;;;10.08;75.41
21824;BME280;11074;48.596;9.238;2024-03-07T12:59:05;98384.97;;;9.84;74.53
21824;BME280;11074;48.596;9.238;2024-03-07T13:01:35;98373.81;;;9.70;74.17
21824;BME280;11074;48.596;9.238;2024-03-07T13:04:04;98381.00;;;9.69;74.54
21824;BME280;11074;48.596;9.238;2024-03-07T13:06:33;98375.50;;;9.59;74.21
21824;BME280;11074;48.596;9.238;2024-03-07T13:08:58;98376.75;;;9.40;73.49
21824;BME280;11074;48.596;9.238;2024-03-07T13:11:24;98385.44;;;9.47;75.42
21824;BME280;11074;48.596;9.238;2024-03-07T13:13:52;98375.22;;;9.44;75.13